createdAt,value
2023-02-25T00:00:11.067Z,14.30
2023-02-25T00:02:47.476Z,15.73
2023-02-25T00:05:21.877Z,15.38
2023-02-25T00:07:54.957Z,23.77
2023-02-25T00:10:28.057Z,18.00
2023-02-25T00:13:17.096Z,16.70
2023-02-25T00:15:50.793Z,14.80
2023-02-25T00:18:23.572Z,20.33
2023-02-25T00:20:57.707Z,14.05
2023-02-25T00:23:30.560Z,15.85
2023-02-25T00:26:05.339Z,16.58
2023-02-25T00:28:39.882Z,15.77
2023-02-25T00:31:15.512Z,16.92
2023-02-25T00:33:48.777Z,19.33
2023-02-25T00:36:24.876Z,10.55
2023-02-25T00:38:58.867Z,17.10
2023-02-25T00:41:31.710Z,18.73
2023-02-25T00:44:05.124Z,14.73
2023-02-25T00:46:38.046Z,17.05
2023-02-25T00:49:13.358Z,15.88
2023-02-25T00:51:51.160Z,14.68
2023-02-25T00:54:53.082Z,20.30
2023-02-25T00:57:25.984Z,13.43
2023-02-25T00:59:58.674Z,18.30
2023-02-25T01:02:31.698Z,16.20
2023-02-25T01:05:05.047Z,16.50
2023-02-25T01:07:39.668Z,15.52
2023-02-25T01:10:12.655Z,17.35
2023-02-25T01:12:45.740Z,15.43
2023-02-25T01:15:18.502Z,17.00
2023-02-25T01:17:51.295Z,15.98
2023-02-25T01:20:24.483Z,14.07
2023-02-25T01:22:59.037Z,23.77
2023-02-25T01:25:31.930Z,18.13
2023-02-25T01:30:39.522Z,20.40
2023-02-25T01:33:12.383Z,29.80
2023-02-25T01:35:45.351Z,18.88
2023-02-25T01:40:58.986Z,14.38
2023-02-25T01:43:31.768Z,19.30
2023-02-25T01:46:04.768Z,13.70
2023-02-25T01:51:14.007Z,19.90
2023-02-25T01:53:49.328Z,21.42
2023-02-25T01:56:26.178Z,23.90
2023-02-25T01:59:00.821Z,17.52
2023-02-25T02:01:35.844Z,16.55
2023-02-25T02:04:14.991Z,13.60
2023-02-25T02:06:50.208Z,18.00
2023-02-25T02:09:28.450Z,17.38
2023-02-25T02:12:04.305Z,22.15
2023-02-25T02:14:39.956Z,14.68
2023-02-25T02:17:25.324Z,23.98
2023-02-25T02:20:13.337Z,13.32
2023-02-25T02:22:55.578Z,18.42
2023-02-25T02:26:05.484Z,15.35
2023-02-25T02:29:19.367Z,19.65
2023-02-25T02:32:08.050Z,14.45
2023-02-25T02:34:47.409Z,16.55
2023-02-25T02:37:28.826Z,11.60
2023-02-25T02:40:17.393Z,10.75
2023-02-25T02:43:04.972Z,12.55
2023-02-25T02:45:49.117Z,9.75
2023-02-25T02:48:29.556Z,15.40
2023-02-25T02:51:07.310Z,13.77
2023-02-25T02:53:45.291Z,9.70
2023-02-25T02:56:23.220Z,14.38
2023-02-25T02:59:00.575Z,10.90
2023-02-25T03:01:38.386Z,10.00
2023-02-25T03:04:20.599Z,14.38
2023-02-25T03:09:34.714Z,17.95
2023-02-25T03:12:07.995Z,25.08
2023-02-25T03:14:41.533Z,15.02
2023-02-25T03:17:17.825Z,20.40
2023-02-25T03:20:06.520Z,13.07
2023-02-25T03:22:42.177Z,16.90
2023-02-25T03:25:23.447Z,14.18
2023-02-25T03:27:58.654Z,18.00
2023-02-25T03:30:38.865Z,14.50
2023-02-25T03:33:20.026Z,9.93
2023-02-25T03:35:58.078Z,13.48
2023-02-25T03:38:34.279Z,17.70
2023-02-25T03:41:08.307Z,16.48
2023-02-25T03:43:47.403Z,8.98
2023-02-25T03:46:22.920Z,13.70
2023-02-25T03:48:59.864Z,18.63
2023-02-25T03:51:36.879Z,13.45
2023-02-25T03:54:09.800Z,15.45
2023-02-25T03:59:18.084Z,16.73
2023-02-25T04:01:54.415Z,14.52
2023-02-25T04:04:27.597Z,17.17
2023-02-25T04:09:35.121Z,11.95
2023-02-25T04:12:08.401Z,12.88
2023-02-25T04:14:41.182Z,17.98
2023-02-25T04:17:14.637Z,19.23
2023-02-25T04:19:47.333Z,13.18
2023-02-25T04:22:21.496Z,20.05
2023-02-25T04:24:54.952Z,11.07
2023-02-25T04:27:28.610Z,14.00
2023-02-25T04:30:01.491Z,14.27
2023-02-25T04:32:34.268Z,17.08
2023-02-25T04:37:48.108Z,14.98
2023-02-25T04:40:22.846Z,12.50
2023-02-25T04:42:55.867Z,16.13
2023-02-25T04:45:28.959Z,15.10
2023-02-25T04:48:01.829Z,20.40
2023-02-25T04:50:35.172Z,24.02
2023-02-25T04:53:09.919Z,16.85
2023-02-25T04:55:42.637Z,21.40
2023-02-25T04:58:15.758Z,18.40
2023-02-25T05:00:49.160Z,21.45
2023-02-25T05:03:21.963Z,17.85
2023-02-25T05:05:54.734Z,17.85
2023-02-25T05:08:29.170Z,16.63
2023-02-25T05:11:02.730Z,15.77
2023-02-25T05:13:35.537Z,19.05
2023-02-25T05:16:11.516Z,17.50
2023-02-25T05:18:46.145Z,17.67
2023-02-25T05:21:21.094Z,17.38
2023-02-25T05:23:55.320Z,18.80
2023-02-25T05:26:28.056Z,15.05
2023-02-25T05:31:33.807Z,16.77
2023-02-25T05:34:07.460Z,13.25
2023-02-25T05:36:41.296Z,16.35
2023-02-25T05:39:17.892Z,15.45
2023-02-25T05:41:51.813Z,15.18
2023-02-25T05:44:25.044Z,14.90
2023-02-25T05:46:57.917Z,20.15
2023-02-25T05:49:30.831Z,21.70
2023-02-25T05:54:39.012Z,17.38
2023-02-25T05:57:14.095Z,17.25
2023-02-25T05:59:48.125Z,19.60
2023-02-25T06:02:21.033Z,12.52
2023-02-25T06:07:27.156Z,11.95
2023-02-25T06:10:01.882Z,11.02
2023-02-25T06:12:38.186Z,9.18
2023-02-25T06:15:12.002Z,13.88
2023-02-25T06:17:45.122Z,15.57
2023-02-25T06:20:18.742Z,10.80
2023-02-25T06:22:51.697Z,12.65
2023-02-25T06:28:00.309Z,10.10
2023-02-25T06:30:33.441Z,9.32
2023-02-25T06:33:06.283Z,12.52
2023-02-25T06:38:11.834Z,14.85
2023-02-25T06:40:50.002Z,13.30
2023-02-25T06:43:23.171Z,7.63
2023-02-25T06:45:55.981Z,10.07
2023-02-25T06:48:28.866Z,10.63
2023-02-25T06:53:35.999Z,19.02
2023-02-25T06:56:15.903Z,15.73
2023-02-25T06:58:49.113Z,12.88
2023-02-25T07:01:22.852Z,14.70
2023-02-25T07:03:58.169Z,14.95
2023-02-25T07:06:31.044Z,11.95
2023-02-25T07:09:03.774Z,13.88
2023-02-25T07:11:38.723Z,8.82
2023-02-25T07:14:14.203Z,11.65
2023-02-25T07:16:47.386Z,11.65
2023-02-25T07:19:20.083Z,13.07
2023-02-25T07:21:52.829Z,19.40
2023-02-25T07:24:27.083Z,11.27
2023-02-25T07:27:04.576Z,17.75
2023-02-25T07:29:37.333Z,13.18
2023-02-25T07:32:10.213Z,11.80
2023-02-25T07:37:16.015Z,10.55
2023-02-25T07:39:48.972Z,21.67
2023-02-25T07:44:56.121Z,13.90
2023-02-25T07:47:29.062Z,17.67
2023-02-25T07:50:06.758Z,26.10
2023-02-25T07:52:39.818Z,19.20
2023-02-25T07:55:13.255Z,19.95
2023-02-25T07:57:48.954Z,16.45
2023-02-25T08:00:22.336Z,16.20
2023-02-25T08:02:55.441Z,18.10
2023-02-25T08:05:28.460Z,16.40
2023-02-25T08:08:01.796Z,17.38
2023-02-25T08:10:34.981Z,21.65
2023-02-25T08:15:42.635Z,22.95
2023-02-25T08:18:18.006Z,21.85
2023-02-25T08:20:55.916Z,15.55
2023-02-25T08:23:28.697Z,20.80
2023-02-25T08:26:02.047Z,21.77
2023-02-25T08:28:37.388Z,14.65
2023-02-25T08:31:12.130Z,21.58
2023-02-25T08:33:49.729Z,18.27
2023-02-25T08:36:26.576Z,18.65
2023-02-25T08:39:00.725Z,14.73
2023-02-25T08:41:33.404Z,19.55
2023-02-25T08:44:07.560Z,20.52
2023-02-25T08:46:41.790Z,19.63
2023-02-25T08:49:15.190Z,22.05
2023-02-25T08:51:50.824Z,21.20
2023-02-25T08:54:24.069Z,20.77
2023-02-25T08:56:57.242Z,17.88
2023-02-25T08:59:36.056Z,16.67
2023-02-25T09:02:15.193Z,25.33
2023-02-25T09:04:47.977Z,33.70
2023-02-25T09:07:22.041Z,24.88
2023-02-25T09:09:55.121Z,20.80
2023-02-25T09:12:27.982Z,21.20
2023-02-25T09:15:02.295Z,18.20
2023-02-25T09:17:35.090Z,23.05
2023-02-25T09:20:11.301Z,17.17
2023-02-25T09:22:44.283Z,16.00
2023-02-25T09:27:49.803Z,24.48
2023-02-25T09:30:24.135Z,14.63
2023-02-25T09:32:56.970Z,21.05
2023-02-25T09:38:02.498Z,19.55
2023-02-25T09:40:35.429Z,14.10
2023-02-25T09:45:53.866Z,23.08
2023-02-25T09:48:30.568Z,14.80
2023-02-25T09:51:19.504Z,19.60
2023-02-25T09:53:56.819Z,23.50
2023-02-25T09:56:31.438Z,23.90
2023-02-25T09:59:11.585Z,16.08
2023-02-25T10:01:52.772Z,19.55
2023-02-25T10:04:33.145Z,23.83
2023-02-25T10:07:15.091Z,19.15
2023-02-25T10:09:54.322Z,21.77
2023-02-25T10:12:32.889Z,16.20
2023-02-25T10:15:23.222Z,13.38
2023-02-25T10:18:12.431Z,18.52
2023-02-25T10:20:53.000Z,19.95
2023-02-25T10:23:38.068Z,13.13
2023-02-25T10:26:17.861Z,24.52
2023-02-25T10:28:55.121Z,14.55
2023-02-25T10:31:28.452Z,12.88
2023-02-25T10:34:20.919Z,20.63
2023-02-25T10:36:56.442Z,18.20
2023-02-25T10:39:31.224Z,19.05
2023-02-25T10:42:04.360Z,15.65
2023-02-25T10:44:37.502Z,13.02
2023-02-25T10:47:15.092Z,14.25
2023-02-25T10:50:15.237Z,10.57
2023-02-25T10:53:00.660Z,13.95
2023-02-25T10:55:51.748Z,9.88
2023-02-25T10:58:29.416Z,13.88
2023-02-25T11:01:06.976Z,13.80
2023-02-25T11:03:46.446Z,12.60
2023-02-25T11:06:25.266Z,17.50
2023-02-25T11:09:00.204Z,7.00
2023-02-25T11:11:35.925Z,10.80
2023-02-25T11:14:16.009Z,13.02
2023-02-25T11:16:48.839Z,7.40
2023-02-25T11:19:26.770Z,16.45
2023-02-25T11:22:07.702Z,16.10
2023-02-25T11:24:42.912Z,9.63
2023-02-25T11:27:29.400Z,12.73
2023-02-25T11:30:07.464Z,11.82
2023-02-25T11:32:44.324Z,7.03
2023-02-25T11:35:20.741Z,14.18
2023-02-25T11:37:55.516Z,8.13
2023-02-25T11:40:31.121Z,8.18
2023-02-25T11:43:17.050Z,6.75
2023-02-25T11:45:56.526Z,10.70
2023-02-25T11:48:34.822Z,10.05
2023-02-25T11:51:16.276Z,12.75
2023-02-25T11:54:02.980Z,7.53
2023-02-25T11:56:39.416Z,11.75
2023-02-25T11:59:30.211Z,9.80
2023-02-25T12:02:21.648Z,7.97
2023-02-25T12:05:35.223Z,7.60
2023-02-25T12:08:21.967Z,7.10
2023-02-25T12:11:27.346Z,5.80
2023-02-25T12:14:24.565Z,6.40
2023-02-25T12:17:21.422Z,7.07
2023-02-25T12:20:30.982Z,6.82
2023-02-25T12:23:45.893Z,7.75
2023-02-25T12:26:33.284Z,3.13
2023-02-25T12:29:23.715Z,8.98
2023-02-25T12:32:18.689Z,7.57
2023-02-25T12:35:16.285Z,7.70
2023-02-25T12:38:17.041Z,12.00
2023-02-25T12:41:09.874Z,6.93
2023-02-25T12:43:50.744Z,6.72
2023-02-25T12:46:47.376Z,7.75
2023-02-25T12:49:49.181Z,5.85
2023-02-25T12:52:29.543Z,5.53
2023-02-25T12:55:22.839Z,6.13
2023-02-25T13:01:02.919Z,4.53
2023-02-25T13:03:54.630Z,5.13
2023-02-25T13:06:56.846Z,11.43
2023-02-25T13:09:47.788Z,10.23
2023-02-25T13:12:44.641Z,7.32
2023-02-25T13:15:21.541Z,9.02
2023-02-25T13:18:13.260Z,10.05
2023-02-25T13:21:14.640Z,11.60
2023-02-25T13:24:11.723Z,8.00
2023-02-25T13:27:04.933Z,10.93
2023-02-25T13:29:52.499Z,10.07
2023-02-25T13:32:33.571Z,18.60
2023-02-25T13:35:29.150Z,16.67
2023-02-25T13:38:18.321Z,30.10
2023-02-25T13:41:01.917Z,15.57
2023-02-25T13:43:52.082Z,13.60
2023-02-25T13:46:47.593Z,11.93
2023-02-25T13:49:48.487Z,18.17
2023-02-25T13:52:55.355Z,7.28
2023-02-25T13:55:47.833Z,15.57
2023-02-25T13:58:43.866Z,12.37
2023-02-25T14:01:40.188Z,11.45
2023-02-25T14:04:40.724Z,10.63
2023-02-25T14:07:22.968Z,9.85
2023-02-25T14:10:13.395Z,10.67
2023-02-25T14:13:02.682Z,13.90
2023-02-25T14:15:48.265Z,8.80
2023-02-25T14:18:33.222Z,9.50
2023-02-25T14:21:40.009Z,13.90
2023-02-25T14:24:20.138Z,10.45
2023-02-25T14:27:03.382Z,9.10
2023-02-25T14:32:28.387Z,8.65
2023-02-25T14:35:18.811Z,5.40
2023-02-25T14:38:04.104Z,7.32
2023-02-25T14:40:46.383Z,11.10
2023-02-25T14:43:32.259Z,13.10
2023-02-25T14:46:16.497Z,14.48
2023-02-25T14:49:00.028Z,12.10
2023-02-25T14:51:49.388Z,14.05
2023-02-25T14:54:48.460Z,10.15
2023-02-25T14:57:51.335Z,16.92
2023-02-25T15:00:45.641Z,10.85
2023-02-25T15:03:38.964Z,6.15
2023-02-25T15:06:32.162Z,8.25
2023-02-25T15:09:23.687Z,10.95
2023-02-25T15:12:27.837Z,15.25
2023-02-25T15:15:21.199Z,9.00
2023-02-25T15:20:52.370Z,16.10
2023-02-25T15:23:50.309Z,8.23
2023-02-25T15:26:26.686Z,10.82
2023-02-25T15:28:59.984Z,10.57
2023-02-25T15:31:34.508Z,13.15
2023-02-25T15:34:34.936Z,15.73
2023-02-25T15:37:20.269Z,16.95
2023-02-25T15:39:56.448Z,15.32
2023-02-25T15:42:52.954Z,6.68
2023-02-25T15:45:38.229Z,11.98
2023-02-25T15:48:31.969Z,7.05
2023-02-25T15:51:10.324Z,15.38
2023-02-25T15:53:48.317Z,13.25
2023-02-25T15:56:56.926Z,8.65
2023-02-25T15:59:45.349Z,11.57
2023-02-25T16:02:46.422Z,11.68
2023-02-25T16:05:28.122Z,8.88
2023-02-25T16:08:14.206Z,4.90
2023-02-25T16:10:53.908Z,6.15
2023-02-25T16:13:38.744Z,12.55
2023-02-25T16:16:14.097Z,8.50
2023-02-25T16:18:50.434Z,13.00
2023-02-25T16:21:27.343Z,8.77
2023-02-25T16:24:01.724Z,16.83
2023-02-25T16:26:45.128Z,10.65
2023-02-25T16:29:35.117Z,11.35
2023-02-25T16:32:17.730Z,11.15
2023-02-25T16:34:56.229Z,8.10
2023-02-25T16:37:37.250Z,8.13
2023-02-25T16:40:15.889Z,12.55
2023-02-25T16:42:50.478Z,12.57
2023-02-25T16:45:28.228Z,13.98
2023-02-25T16:48:05.475Z,9.98
2023-02-25T16:50:38.378Z,9.70
2023-02-25T16:53:18.794Z,10.75
2023-02-25T16:55:58.239Z,8.88
2023-02-25T16:58:32.469Z,13.15
2023-02-25T17:01:07.608Z,9.57
2023-02-25T17:03:47.447Z,12.65
2023-02-25T17:06:21.311Z,13.50
2023-02-25T17:08:54.160Z,10.93
2023-02-25T17:11:27.648Z,11.23
2023-02-25T17:14:05.478Z,10.30
2023-02-25T17:16:43.543Z,9.43
2023-02-25T17:19:20.689Z,11.05
2023-02-25T17:21:56.930Z,6.75
2023-02-25T17:24:33.152Z,14.90
2023-02-25T17:27:12.350Z,6.70
2023-02-25T17:29:46.675Z,6.88
2023-02-25T17:32:22.577Z,12.07
2023-02-25T17:34:58.880Z,9.95
2023-02-25T17:37:33.021Z,11.10
2023-02-25T17:40:10.465Z,9.18
2023-02-25T17:42:44.235Z,8.30
2023-02-25T17:45:44.537Z,11.65
2023-02-25T17:48:19.743Z,6.38
2023-02-25T17:50:55.678Z,11.25
2023-02-25T17:53:40.462Z,12.88
2023-02-25T17:56:25.014Z,5.75
2023-02-25T17:59:02.633Z,10.10
2023-02-25T18:01:53.976Z,8.05
2023-02-25T18:04:35.131Z,7.70
2023-02-25T18:07:21.702Z,10.13
2023-02-25T18:09:54.700Z,9.13
2023-02-25T18:15:04.150Z,6.82
2023-02-25T18:17:40.777Z,7.75
2023-02-25T18:20:29.298Z,7.35
2023-02-25T18:23:03.550Z,11.18
2023-02-25T18:25:38.447Z,7.05
2023-02-25T18:28:16.741Z,7.57
2023-02-25T18:30:51.286Z,7.00
2023-02-25T18:33:25.536Z,8.93
2023-02-25T18:35:59.347Z,6.20
2023-02-25T18:38:32.869Z,7.07
2023-02-25T18:41:07.237Z,9.60
2023-02-25T18:43:42.063Z,6.15
2023-02-25T18:46:15.707Z,9.13
2023-02-25T18:48:50.053Z,8.43
2023-02-25T18:51:23.799Z,6.75
2023-02-25T18:53:56.821Z,8.15
2023-02-25T18:59:02.270Z,5.90
2023-02-25T19:01:35.594Z,6.13
2023-02-25T19:04:15.981Z,10.07
2023-02-25T19:06:49.867Z,8.90
2023-02-25T19:09:24.947Z,8.07
2023-02-25T19:11:57.776Z,9.65
2023-02-25T19:14:30.595Z,13.23
2023-02-25T19:19:38.366Z,11.50
2023-02-25T19:22:12.781Z,9.32
2023-02-25T19:24:48.291Z,7.43
2023-02-25T19:27:23.397Z,15.15
2023-02-25T19:29:59.339Z,12.60
2023-02-25T19:32:32.475Z,8.73
2023-02-25T19:35:10.453Z,8.52
2023-02-25T19:37:43.928Z,6.63
2023-02-25T19:40:17.549Z,8.52
2023-02-25T19:42:50.617Z,9.32
2023-02-25T19:45:25.373Z,6.38
2023-02-25T19:47:58.552Z,9.93
2023-02-25T19:50:34.912Z,12.55
2023-02-25T19:53:07.874Z,10.02
2023-02-25T19:55:43.274Z,5.82
2023-02-25T19:58:16.593Z,9.90
2023-02-25T20:00:49.933Z,13.23
2023-02-25T20:03:23.134Z,8.88
2023-02-25T20:05:57.670Z,10.77
2023-02-25T20:08:30.936Z,9.95
2023-02-25T20:11:04.291Z,10.82
2023-02-25T20:13:38.397Z,7.50
2023-02-25T20:16:11.612Z,4.68
2023-02-25T20:18:44.520Z,4.80
2023-02-25T20:23:52.410Z,6.13
2023-02-25T20:26:25.952Z,9.60
2023-02-25T20:28:58.926Z,15.07
2023-02-25T20:31:31.998Z,7.00
2023-02-25T20:34:05.871Z,4.93
2023-02-25T20:36:45.019Z,6.50
2023-02-25T20:39:34.477Z,8.40
2023-02-25T20:42:11.845Z,11.73
2023-02-25T20:44:45.937Z,8.45
2023-02-25T20:47:21.896Z,7.10
2023-02-25T20:49:56.479Z,7.30
2023-02-25T20:52:30.966Z,6.93
2023-02-25T20:55:06.624Z,5.43
2023-02-25T20:57:39.857Z,6.60
2023-02-25T21:02:49.588Z,3.80
2023-02-25T21:07:57.967Z,7.70
2023-02-25T21:10:31.406Z,7.00
2023-02-25T21:13:04.742Z,11.38
2023-02-25T21:15:37.987Z,5.57
2023-02-25T21:18:11.682Z,14.32
2023-02-25T21:20:44.582Z,10.70
2023-02-25T21:25:52.125Z,9.38
2023-02-25T21:33:35.138Z,7.43
2023-02-25T21:36:12.414Z,13.20
2023-02-25T21:38:46.845Z,8.98
2023-02-25T21:41:20.274Z,7.43
2023-02-25T21:43:54.055Z,9.63
2023-02-25T21:46:28.988Z,6.85
2023-02-25T21:49:02.345Z,6.43
2023-02-25T21:51:44.702Z,7.32
2023-02-25T21:54:19.648Z,8.93
2023-02-25T21:56:53.087Z,7.60
2023-02-25T21:59:27.876Z,6.88
2023-02-25T22:02:01.469Z,8.98
2023-02-25T22:04:34.667Z,9.85
2023-02-25T22:07:07.998Z,10.15
2023-02-25T22:09:43.509Z,6.88
2023-02-25T22:12:36.106Z,8.30
2023-02-25T22:15:19.531Z,5.45
2023-02-25T22:17:53.211Z,10.13
2023-02-25T22:20:26.963Z,7.40
2023-02-25T22:23:00.435Z,7.45
2023-02-25T22:25:34.863Z,6.53
2023-02-25T22:28:08.134Z,9.93
2023-02-25T22:30:41.961Z,7.03
2023-02-25T22:33:18.506Z,6.45
2023-02-25T22:35:57.708Z,4.75
2023-02-25T22:38:32.105Z,7.70
2023-02-25T22:41:14.618Z,8.18
2023-02-25T22:43:50.619Z,5.75
2023-02-25T22:46:26.053Z,6.75
2023-02-25T22:48:59.800Z,10.20
2023-02-25T22:51:36.026Z,9.30
2023-02-25T22:54:09.553Z,5.82
2023-02-25T22:56:45.161Z,7.28
2023-02-25T22:59:18.912Z,7.95
2023-02-25T23:01:53.201Z,6.72
2023-02-25T23:04:28.031Z,8.40
2023-02-25T23:07:01.740Z,5.60
2023-02-25T23:09:35.220Z,6.90
2023-02-25T23:12:10.318Z,8.68
2023-02-25T23:14:43.678Z,5.88
2023-02-25T23:17:19.943Z,14.32
2023-02-25T23:19:58.820Z,8.05
2023-02-25T23:22:34.247Z,9.57
2023-02-25T23:25:10.322Z,6.18
2023-02-25T23:27:46.080Z,9.93
2023-02-25T23:30:19.908Z,8.13
2023-02-25T23:32:53.347Z,5.50
2023-02-25T23:35:27.429Z,6.72
2023-02-25T23:38:00.661Z,4.47
2023-02-25T23:40:33.820Z,6.32
2023-02-25T23:43:10.919Z,10.93
2023-02-25T23:45:46.855Z,8.00
2023-02-25T23:48:21.122Z,7.20
2023-02-25T23:50:54.496Z,8.15
2023-02-25T23:53:28.163Z,7.40
2023-02-25T23:56:06.529Z,6.50
2023-02-25T23:58:41.810Z,6.80
